Time;durP1;ratioP1;P1;durP2;ratioP2;P2;SDS_P1;SDS_P2;PMS_P1;PMS_P2;Temp;Humidity;BMP_temperature;BMP_pressure;BME280_temperature;BME280_humidity;BME280_pressure;Samples;Min_cycle;Max_cycle;Signal;HPM_P1;HPM_P2
2022/04/17 00:00:05;;;;;;;4.30;3.90;;;;;;;;;;4937698;29;20207;-69
2022/04/17 00:02:32;;;;;;;4.28;3.00;;;;;;;;;;4947181;29;20230;-68
2022/04/17 00:04:59;;;;;;;4.47;3.80;;;;;;;;;;4932799;29;20207;-69
2022/04/17 00:07:26;;;;;;;4.75;3.00;;;;;;;;;;4946099;29;20733;-69
2022/04/17 00:09:54;;;;;;;4.30;3.10;;;;;;;;;;4949110;29;20222;-68
2022/04/17 00:12:23;;;;;;;2.85;2.63;;;;;;;;;;4944322;29;20233;-69
2022/04/17 00:14:50;;;;;;;5.22;3.72;;;;;;;;;;4931040;29;20191;-70
2022/04/17 00:17:19;;;;;;;3.85;3.40;;;;;;;;;;4934257;29;20207;-69
2022/04/17 00:19:46;;;;;;;3.30;3.00;;;;;;;;;;4931672;29;20204;-69
2022/04/17 00:22:14;;;;;;;6.55;4.70;;;;;;;;;;4941500;29;20226;-69
2022/04/17 00:24:41;;;;;;;3.90;3.30;;;;;;;;;;4940016;29;20571;-69
2022/04/17 00:27:08;;;;;;;3.58;3.10;;;;;;;;;;4945365;29;20569;-69
2022/04/17 00:29:35;;;;;;;4.43;3.42;;;;;;;;;;4934695;29;20217;-69
2022/04/17 00:32:02;;;;;;;5.72;3.70;;;;;;;;;;4949664;29;20203;-69
2022/04/17 00:34:31;;;;;;;4.82;3.30;;;;;;;;;;4931196;29;20230;-69
2022/04/17 00:36:59;;;;;;;5.00;3.35;;;;;;;;;;4946731;29;20221;-68
2022/04/17 00:39:26;;;;;;;4.25;3.83;;;;;;;;;;4946699;29;20585;-68
2022/04/17 00:41:54;;;;;;;3.78;3.38;;;;;;;;;;4949571;29;20733;-69
2022/04/17 00:44:21;;;;;;;4.00;3.42;;;;;;;;;;4940374;29;20249;-68
2022/04/17 00:46:48;;;;;;;5.45;4.47;;;;;;;;;;4947065;29;20681;-68
2022/04/17 00:49:16;;;;;;;3.67;3.38;;;;;;;;;;4941911;29;20206;-68
2022/04/17 00:51:47;;;;;;;5.07;4.20;;;;;;;;;;4946284;29;20213;-69
2022/04/17 00:54:15;;;;;;;5.35;4.03;;;;;;;;;;4937573;29;20202;-68
2022/04/17 00:56:43;;;;;;;3.83;3.30;;;;;;;;;;4947184;29;20650;-68
2022/04/17 00:59:10;;;;;;;4.72;3.47;;;;;;;;;;4935565;29;20206;-68
2022/04/17 01:01:38;;;;;;;6.07;4.05;;;;;;;;;;4948615;29;20214;-68
2022/04/17 01:04:05;;;;;;;6.00;4.20;;;;;;;;;;4947251;29;20289;-69
2022/04/17 01:06:33;;;;;;;4.40;3.80;;;;;;;;;;4940944;29;20194;-68
2022/04/17 01:09:01;;;;;;;4.63;3.90;;;;;;;;;;4937287;29;20195;-69
2022/04/17 01:11:29;;;;;;;4.75;4.18;;;;;;;;;;4934302;29;20675;-69
2022/04/17 01:13:56;;;;;;;6.15;4.15;;;;;;;;;;4936978;29;20198;-70
2022/04/17 01:16:24;;;;;;;5.38;4.65;;;;;;;;;;4935891;29;20199;-70
2022/04/17 01:18:54;;;;;;;5.03;3.58;;;;;;;;;;4932274;29;20223;-70
2022/04/17 01:21:23;;;;;;;6.53;5.57;;;;;;;;;;4932732;29;20237;-70
2022/04/17 01:29:23;;;;;;;6.60;4.45;;;;;;;;;;4928962;29;20347;-69
2022/04/17 01:31:50;;;;;;;7.15;5.25;;;;;;;;;;4944550;29;20314;-69
2022/04/17 01:34:18;;;;;;;4.28;3.88;;;;;;;;;;4934574;29;20977;-69
2022/04/17 01:36:46;;;;;;;4.35;3.90;;;;;;;;;;4944596;29;20205;-69
2022/04/17 01:39:14;;;;;;;5.03;4.53;;;;;;;;;;4945064;29;20234;-69
2022/04/17 01:41:41;;;;;;;5.25;4.40;;;;;;;;;;4944787;29;20230;-69
2022/04/17 01:44:08;;;;;;;5.95;5.28;;;;;;;;;;4932359;29;20202;-69
2022/04/17 01:46:36;;;;;;;7.15;4.30;;;;;;;;;;4947739;29;20198;-69
2022/04/17 01:49:03;;;;;;;7.35;4.35;;;;;;;;;;4937325;29;20682;-69
2022/04/17 01:51:34;;;;;;;4.43;3.97;;;;;;;;;;4937381;29;20972;-69
2022/04/17 01:54:03;;;;;;;4.60;3.95;;;;;;;;;;4944862;29;20194;-69
2022/04/17 01:56:30;;;;;;;7.38;4.97;;;;;;;;;;4946369;29;20199;-69
2022/04/17 01:58:57;;;;;;;6.82;4.38;;;;;;;;;;4935901;29;20202;-68
2022/04/17 02:01:24;;;;;;;6.15;4.40;;;;;;;;;;4948982;29;20202;-68
2022/04/17 02:03:51;;;;;;;5.60;4.00;;;;;;;;;;4941339;29;20190;-69
2022/04/17 02:06:19;;;;;;;4.47;3.70;;;;;;;;;;4941243;29;20213;-69
2022/04/17 02:08:46;;;;;;;5.80;4.50;;;;;;;;;;4946889;29;20230;-69
2022/04/17 02:11:14;;;;;;;5.88;4.15;;;;;;;;;;4932958;29;20202;-69
2022/04/17 02:13:42;;;;;;;4.97;3.95;;;;;;;;;;4941171;29;20202;-69
2022/04/17 02:16:09;;;;;;;5.03;4.13;;;;;;;;;;4936388;29;20246;-69
2022/04/17 02:18:36;;;;;;;5.35;4.45;;;;;;;;;;4935135;29;20199;-69
2022/04/17 02:21:04;;;;;;;6.40;3.80;;;;;;;;;;4948815;29;21058;-69
2022/04/17 02:23:31;;;;;;;5.35;4.25;;;;;;;;;;4925161;29;20231;-69
2022/04/17 02:25:58;;;;;;;6.82;4.68;;;;;;;;;;4931023;29;20190;-68
2022/04/17 02:28:27;;;;;;;4.45;3.83;;;;;;;;;;4934681;29;20195;-68
2022/04/17 02:30:54;;;;;;;4.85;3.65;;;;;;;;;;4943117;28;20206;-70
2022/04/17 02:33:21;;;;;;;6.22;4.90;;;;;;;;;;4943078;29;20539;-69
2022/04/17 02:35:48;;;;;;;5.85;4.22;;;;;;;;;;4935894;29;20203;-69
2022/04/17 02:38:15;;;;;;;4.80;4.40;;;;;;;;;;4947075;29;20213;-69
2022/04/17 02:40:43;;;;;;;4.65;4.18;;;;;;;;;;4946683;28;20233;-69
2022/04/17 02:43:10;;;;;;;5.55;4.60;;;;;;;;;;4941335;29;20293;-69
2022/04/17 02:45:38;;;;;;;6.35;4.38;;;;;;;;;;4938861;29;20191;-69
2022/04/17 02:48:05;;;;;;;7.65;4.22;;;;;;;;;;4943821;29;20302;-69
2022/04/17 02:50:32;;;;;;;5.63;4.03;;;;;;;;;;4921469;29;20239;-69
2022/04/17 02:52:59;;;;;;;5.05;4.45;;;;;;;;;;4937863;29;20206;-69
2022/04/17 02:55:26;;;;;;;6.20;4.00;;;;;;;;;;4949140;29;20242;-69
2022/04/17 02:57:54;;;;;;;4.80;4.30;;;;;;;;;;4939663;29;20396;-69
2022/04/17 03:00:21;;;;;;;4.22;3.80;;;;;;;;;;4938798;29;20202;-69
2022/04/17 03:05:37;;;;;;;5.32;4.72;;;;;;;;;;4928604;29;20262;-68
2022/04/17 03:08:05;;;;;;;5.05;3.85;;;;;;;;;;4925898;29;20202;-68
2022/04/17 03:10:32;;;;;;;7.18;4.95;;;;;;;;;;4952713;29;20198;-69
2022/04/17 03:12:59;;;;;;;5.07;4.45;;;;;;;;;;4942288;29;20210;-68
2022/04/17 03:15:26;;;;;;;5.47;3.60;;;;;;;;;;4942457;29;20194;-69
2022/04/17 03:17:55;;;;;;;5.57;4.30;;;;;;;;;;4938131;29;20202;-69
2022/04/17 03:20:22;;;;;;;4.97;4.22;;;;;;;;;;4946505;29;20201;-69
2022/04/17 03:22:50;;;;;;;5.40;4.00;;;;;;;;;;4941545;29;20758;-69
2022/04/17 03:25:17;;;;;;;9.70;5.57;;;;;;;;;;4942250;29;20213;-70
2022/04/17 03:27:46;;;;;;;4.88;4.22;;;;;;;;;;4936417;29;20606;-69
2022/04/17 03:30:14;;;;;;;4.97;4.28;;;;;;;;;;4938477;29;20201;-69
2022/04/17 03:32:42;;;;;;;5.28;4.70;;;;;;;;;;4934538;29;20199;-69
2022/04/17 03:35:10;;;;;;;5.82;5.32;;;;;;;;;;4944688;29;20677;-68
2022/04/17 03:37:37;;;;;;;5.35;4.55;;;;;;;;;;4944608;29;20197;-68
2022/04/17 03:40:05;;;;;;;6.03;5.10;;;;;;;;;;4919045;28;1036988;-69
2022/04/17 03:42:32;;;;;;;7.10;4.38;;;;;;;;;;4934149;29;20455;-68
2022/04/17 03:44:59;;;;;;;4.20;3.67;;;;;;;;;;4943220;29;20233;-68
2022/04/17 03:47:26;;;;;;;6.15;4.43;;;;;;;;;;4946914;29;20572;-68
2022/04/17 03:49:53;;;;;;;4.72;3.83;;;;;;;;;;4935486;29;20202;-69
2022/04/17 03:52:22;;;;;;;4.45;4.00;;;;;;;;;;4938434;29;20392;-69
2022/04/17 03:54:49;;;;;;;3.90;3.53;;;;;;;;;;4936624;29;20194;-69
2022/04/17 03:57:16;;;;;;;4.63;3.70;;;;;;;;;;4934149;29;20191;-69
2022/04/17 03:59:43;;;;;;;7.72;3.85;;;;;;;;;;4945827;29;20213;-69
2022/04/17 04:02:10;;;;;;;4.50;4.05;;;;;;;;;;4942505;29;20209;-69
2022/04/17 04:04:37;;;;;;;5.95;3.85;;;;;;;;;;4934151;29;20281;-69
2022/04/17 04:07:04;;;;;;;7.70;4.57;;;;;;;;;;4945880;29;20213;-69
2022/04/17 04:09:32;;;;;;;5.32;3.95;;;;;;;;;;4938105;29;20199;-70
2022/04/17 04:11:59;;;;;;;5.13;3.58;;;;;;;;;;4942970;29;20538;-69
2022/04/17 04:14:26;;;;;;;5.93;4.70;;;;;;;;;;4938228;29;20198;-69
2022/04/17 04:16:54;;;;;;;6.60;4.05;;;;;;;;;;4941162;29;20206;-69
2022/04/17 04:19:21;;;;;;;6.05;4.93;;;;;;;;;;4941568;29;20565;-69
2022/04/17 04:21:48;;;;;;;5.75;4.20;;;;;;;;;;4939048;29;20289;-69
2022/04/17 04:24:15;;;;;;;5.63;4.90;;;;;;;;;;4940336;29;20236;-68
2022/04/17 04:26:45;;;;;;;5.25;4.43;;;;;;;;;;4939858;29;20218;-68
2022/04/17 04:29:11;;;;;;;6.05;3.90;;;;;;;;;;4935499;29;20285;-69
2022/04/17 04:31:38;;;;;;;5.15;3.85;;;;;;;;;;4942548;29;20201;-69
2022/04/17 04:34:05;;;;;;;6.13;4.93;;;;;;;;;;4934983;29;20208;-69
2022/04/17 04:36:32;;;;;;;6.63;4.93;;;;;;;;;;4941137;29;20205;-69
2022/04/17 04:38:59;;;;;;;5.95;3.80;;;;;;;;;;4948036;28;20230;-69
2022/04/17 04:41:26;;;;;;;7.97;4.18;;;;;;;;;;4938403;29;20594;-69
2022/04/17 04:43:54;;;;;;;7.25;4.72;;;;;;;;;;4936141;29;20352;-69
2022/04/17 04:46:20;;;;;;;5.68;4.10;;;;;;;;;;4944122;29;20218;-69
2022/04/17 04:51:32;;;;;;;6.82;4.68;;;;;;;;;;4944025;29;20200;-70
2022/04/17 04:53:59;;;;;;;5.20;4.43;;;;;;;;;;4937413;28;20215;-70
2022/04/17 04:56:26;;;;;;;9.40;4.63;;;;;;;;;;4929154;29;20218;-68
2022/04/17 04:58:55;;;;;;;6.35;3.63;;;;;;;;;;4939886;29;20203;-68
2022/04/17 05:01:22;;;;;;;5.45;4.68;;;;;;;;;;4940451;29;20276;-69
2022/04/17 05:03:49;;;;;;;5.10;4.35;;;;;;;;;;4943774;29;20225;-69
2022/04/17 05:06:17;;;;;;;7.60;4.93;;;;;;;;;;4935142;29;20197;-69
2022/04/17 05:08:44;;;;;;;7.00;4.07;;;;;;;;;;4941264;29;20199;-69
2022/04/17 05:11:11;;;;;;;5.00;4.53;;;;;;;;;;4937079;29;20202;-69
2022/04/17 05:13:39;;;;;;;4.50;3.80;;;;;;;;;;4942892;29;20201;-69
2022/04/17 05:16:08;;;;;;;4.70;3.60;;;;;;;;;;4945573;29;20266;-69
2022/04/17 05:18:35;;;;;;;5.80;5.15;;;;;;;;;;4937332;29;20210;-68
2022/04/17 05:21:02;;;;;;;5.00;4.32;;;;;;;;;;4941863;29;20210;-68
2022/04/17 05:23:29;;;;;;;4.43;3.67;;;;;;;;;;4935748;29;20222;-68
2022/04/17 05:25:57;;;;;;;6.45;4.75;;;;;;;;;;4945223;29;21140;-68
2022/04/17 05:28:25;;;;;;;4.72;4.30;;;;;;;;;;4944716;29;20213;-69
2022/04/17 05:30:52;;;;;;;5.10;3.80;;;;;;;;;;4937780;29;20206;-70
2022/04/17 05:33:21;;;;;;;8.27;4.03;;;;;;;;;;4941637;29;20207;-71
2022/04/17 05:35:48;;;;;;;6.47;4.20;;;;;;;;;;4941816;29;20199;-71
2022/04/17 05:38:15;;;;;;;5.30;4.78;;;;;;;;;;4934103;29;20215;-71
2022/04/17 05:40:43;;;;;;;4.63;4.18;;;;;;;;;;4935193;29;20219;-71
2022/04/17 05:43:10;;;;;;;5.60;4.10;;;;;;;;;;4941006;29;20230;-71
2022/04/17 05:45:38;;;;;;;5.53;4.80;;;;;;;;;;4936446;29;20195;-71
2022/04/17 05:48:06;;;;;;;5.45;4.50;;;;;;;;;;4945843;29;20203;-71
2022/04/17 05:50:35;;;;;;;3.83;3.53;;;;;;;;;;4932103;29;20735;-70
2022/04/17 05:53:02;;;;;;;4.82;4.32;;;;;;;;;;4937187;29;20206;-69
2022/04/17 05:55:29;;;;;;;4.40;3.92;;;;;;;;;;4945557;29;20199;-70
2022/04/17 05:57:56;;;;;;;7.57;4.85;;;;;;;;;;4930585;29;20203;-71
2022/04/17 06:00:23;;;;;;;3.95;3.55;;;;;;;;;;4938831;29;20198;-70
2022/04/17 06:02:50;;;;;;;4.07;3.50;;;;;;;;;;4946921;29;20195;-69
2022/04/17 06:05:19;;;;;;;6.72;3.90;;;;;;;;;;4930806;28;20198;-70
2022/04/17 06:07:47;;;;;;;4.15;3.75;;;;;;;;;;4951620;29;20194;-70
2022/04/17 06:10:15;;;;;;;4.82;3.90;;;;;;;;;;4947960;29;20679;-70
2022/04/17 06:12:43;;;;;;;4.95;3.10;;;;;;;;;;4938389;29;20198;-70
2022/04/17 06:15:11;;;;;;;4.10;3.75;;;;;;;;;;4950996;29;20259;-70
2022/04/17 06:17:39;;;;;;;4.60;3.55;;;;;;;;;;4930492;29;20226;-70
2022/04/17 06:20:07;;;;;;;3.75;3.13;;;;;;;;;;4933966;29;20229;-69
2022/04/17 06:22:35;;;;;;;4.63;3.72;;;;;;;;;;4934268;29;20237;-69
2022/04/17 06:25:04;;;;;;;3.25;2.95;;;;;;;;;;4938348;29;20310;-69
2022/04/17 06:27:37;;;;;;;3.90;3.50;;;;;;;;;;4938089;29;20715;-69
2022/04/17 06:30:07;;;;;;;6.85;3.90;;;;;;;;;;4939596;29;20198;-70
2022/04/17 06:32:34;;;;;;;3.88;3.35;;;;;;;;;;4944093;29;20476;-69
2022/04/17 06:35:01;;;;;;;4.13;3.22;;;;;;;;;;4929214;29;20297;-69
2022/04/17 06:37:28;;;;;;;4.75;2.90;;;;;;;;;;4945304;29;20250;-69
2022/04/17 06:39:57;;;;;;;3.78;3.13;;;;;;;;;;4944292;28;20319;-69
2022/04/17 06:42:25;;;;;;;3.35;2.65;;;;;;;;;;4935472;29;20218;-69
2022/04/17 06:44:52;;;;;;;3.13;2.88;;;;;;;;;;4937154;29;20219;-69
2022/04/17 06:47:19;;;;;;;3.60;3.15;;;;;;;;;;4935690;29;20223;-70
2022/04/17 06:49:46;;;;;;;4.57;3.60;;;;;;;;;;4931086;29;20643;-69
2022/04/17 06:52:14;;;;;;;4.00;3.60;;;;;;;;;;4935727;29;20281;-69
2022/04/17 06:54:41;;;;;;;3.75;3.33;;;;;;;;;;4934840;29;20273;-70
2022/04/17 06:57:08;;;;;;;3.47;3.10;;;;;;;;;;4934713;29;20201;-69
2022/04/17 06:59:36;;;;;;;3.05;2.75;;;;;;;;;;4935261;29;20207;-70
2022/04/17 07:02:03;;;;;;;3.25;2.97;;;;;;;;;;4931565;29;20212;-70
2022/04/17 07:04:30;;;;;;;4.20;3.17;;;;;;;;;;4931462;29;20223;-69
2022/04/17 07:06:57;;;;;;;3.65;3.00;;;;;;;;;;4934048;29;20214;-69
2022/04/17 07:09:24;;;;;;;5.10;2.80;;;;;;;;;;4933674;29;20194;-69
2022/04/17 07:11:54;;;;;;;3.35;3.05;;;;;;;;;;4937941;29;20681;-69
2022/04/17 07:14:21;;;;;;;3.10;2.80;;;;;;;;;;4935848;29;20360;-69
2022/04/17 07:16:50;;;;;;;4.40;2.97;;;;;;;;;;4928125;29;20207;-70
2022/04/17 07:19:17;;;;;;;3.50;3.10;;;;;;;;;;4934865;29;20203;-70
2022/04/17 07:21:44;;;;;;;4.93;3.90;;;;;;;;;;4940226;29;20210;-69
2022/04/17 07:24:11;;;;;;;3.85;3.10;;;;;;;;;;4936294;29;20309;-70
2022/04/17 07:26:38;;;;;;;5.20;4.00;;;;;;;;;;4943104;29;20202;-69
2022/04/17 07:29:05;;;;;;;4.88;3.35;;;;;;;;;;4938277;29;20195;-70
2022/04/17 07:31:32;;;;;;;4.50;2.65;;;;;;;;;;4943387;29;20198;-70
2022/04/17 07:34:01;;;;;;;3.75;2.47;;;;;;;;;;4940769;29;20210;-71
2022/04/17 07:36:28;;;;;;;2.70;2.50;;;;;;;;;;4944687;29;20202;-69
2022/04/17 07:38:55;;;;;;;3.10;2.60;;;;;;;;;;4937190;28;20206;-69
2022/04/17 07:41:22;;;;;;;4.00;2.75;;;;;;;;;;4947170;29;20198;-69
2022/04/17 07:43:51;;;;;;;2.28;2.05;;;;;;;;;;4942592;29;20226;-70
2022/04/17 07:46:18;;;;;;;4.82;2.17;;;;;;;;;;4948587;29;20586;-70
2022/04/17 07:48:45;;;;;;;3.95;3.03;;;;;;;;;;4936827;29;20542;-70
2022/04/17 07:51:13;;;;;;;6.97;2.58;;;;;;;;;;4942973;29;20198;-70
2022/04/17 07:53:40;;;;;;;2.25;1.95;;;;;;;;;;4943133;29;20210;-69
2022/04/17 07:56:07;;;;;;;2.67;2.47;;;;;;;;;;4947749;29;20206;-69
2022/04/17 07:58:35;;;;;;;2.28;2.08;;;;;;;;;;4943739;29;20214;-70
2022/04/17 08:01:10;;;;;;;4.07;2.40;;;;;;;;;;4943742;29;20233;-70
2022/04/17 08:03:47;;;;;;;3.30;2.60;;;;;;;;;;4932175;29;20229;-70
2022/04/17 08:06:16;;;;;;;3.30;2.40;;;;;;;;;;4939974;29;20564;-70
2022/04/17 08:08:43;;;;;;;3.42;2.55;;;;;;;;;;4940868;29;20205;-69
2022/04/17 08:11:11;;;;;;;2.85;2.55;;;;;;;;;;4939294;29;20253;-69
2022/04/17 08:13:38;;;;;;;3.92;2.33;;;;;;;;;;4936637;29;20681;-69
2022/04/17 08:16:05;;;;;;;3.35;2.28;;;;;;;;;;4936991;29;20195;-70
2022/04/17 08:18:33;;;;;;;4.68;2.35;;;;;;;;;;4933557;29;20206;-70
2022/04/17 08:21:00;;;;;;;2.45;1.90;;;;;;;;;;4944335;29;20294;-73
2022/04/17 08:23:29;;;;;;;1.90;1.70;;;;;;;;;;4934266;29;20199;-70
2022/04/17 08:25:56;;;;;;;2.40;2.20;;;;;;;;;;4948010;29;20201;-70
2022/04/17 08:28:23;;;;;;;4.90;2.20;;;;;;;;;;4937153;28;20573;-70
2022/04/17 08:30:50;;;;;;;3.30;2.10;;;;;;;;;;4946408;29;20191;-70
2022/04/17 08:33:17;;;;;;;2.75;1.60;;;;;;;;;;4943099;29;20195;-70
2022/04/17 08:35:46;;;;;;;2.75;1.92;;;;;;;;;;4935527;29;20209;-70
2022/04/17 08:38:14;;;;;;;2.10;1.90;;;;;;;;;;4945931;29;20253;-70
2022/04/17 08:40:43;;;;;;;2.50;2.30;;;;;;;;;;4944084;28;20226;-69
2022/04/17 08:43:10;;;;;;;1.92;1.75;;;;;;;;;;4946625;29;20582;-70
2022/04/17 08:45:37;;;;;;;2.63;2.10;;;;;;;;;;4941363;29;20218;-70
2022/04/17 08:48:05;;;;;;;2.40;2.10;;;;;;;;;;4952355;29;20194;-70
2022/04/17 08:50:33;;;;;;;1.52;1.42;;;;;;;;;;4944089;29;20701;-70
2022/04/17 08:53:01;;;;;;;2.20;1.73;;;;;;;;;;4944423;29;20226;-70
2022/04/17 08:55:28;;;;;;;2.80;2.03;;;;;;;;;;4942248;29;20231;-70
2022/04/17 08:57:56;;;;;;;2.42;2.00;;;;;;;;;;4938778;29;20535;-70
2022/04/17 09:00:23;;;;;;;2.53;2.08;;;;;;;;;;4938461;29;20206;-70
2022/04/17 09:02:51;;;;;;;2.22;1.60;;;;;;;;;;4945263;29;20274;-70
2022/04/17 09:05:18;;;;;;;2.58;2.05;;;;;;;;;;4933947;29;20740;-70
2022/04/17 09:07:46;;;;;;;4.50;2.30;;;;;;;;;;4945613;29;20210;-70
2022/04/17 09:10:24;;;;;;;2.95;1.98;;;;;;;;;;4949469;29;20228;-71
2022/04/17 09:12:52;;;;;;;3.83;1.70;;;;;;;;;;4941920;29;20194;-71
2022/04/17 09:15:23;;;;;;;3.28;2.28;;;;;;;;;;4951976;29;20209;-71
2022/04/17 09:17:51;;;;;;;3.33;1.73;;;;;;;;;;4937808;29;20222;-69
2022/04/17 09:20:22;;;;;;;2.42;1.60;;;;;;;;;;4942640;29;20202;-70
2022/04/17 09:22:50;;;;;;;2.42;1.80;;;;;;;;;;4947049;29;20211;-70
2022/04/17 09:25:18;;;;;;;3.25;1.85;;;;;;;;;;4941261;29;20689;-70
2022/04/17 09:27:55;;;;;;;3.20;1.50;;;;;;;;;;4941160;29;20246;-70
2022/04/17 09:30:28;;;;;;;1.95;1.83;;;;;;;;;;4940349;29;20229;-70
2022/04/17 09:32:55;;;;;;;2.38;1.70;;;;;;;;;;4947690;29;20202;-71
2022/04/17 09:35:25;;;;;;;2.05;1.65;;;;;;;;;;4930655;29;20594;-71
2022/04/17 09:37:56;;;;;;;2.25;1.50;;;;;;;;;;4937616;29;20225;-70
2022/04/17 09:40:23;;;;;;;2.85;2.17;;;;;;;;;;4931891;28;20732;-70
2022/04/17 09:42:50;;;;;;;1.55;1.45;;;;;;;;;;4943571;29;20222;-73
2022/04/17 09:45:17;;;;;;;1.70;1.42;;;;;;;;;;4942591;29;20676;-75
2022/04/17 09:47:57;;;;;;;3.13;1.73;;;;;;;;;;4935727;29;20198;-70
2022/04/17 09:50:32;;;;;;;1.60;1.50;;;;;;;;;;4932654;29;20190;-70
2022/04/17 09:53:03;;;;;;;1.67;1.50;;;;;;;;;;4944339;29;20202;-69
2022/04/17 09:55:31;;;;;;;3.50;1.55;;;;;;;;;;4945844;29;20218;-70
2022/04/17 09:57:59;;;;;;;2.53;1.40;;;;;;;;;;4937440;29;20209;-69
2022/04/17 10:00:26;;;;;;;1.65;1.50;;;;;;;;;;4940317;29;20199;-69
2022/04/17 10:02:53;;;;;;;3.30;1.77;;;;;;;;;;4927741;29;20201;-72
2022/04/17 10:05:22;;;;;;;2.30;1.90;;;;;;;;;;4927090;29;20310;-72
2022/04/17 10:07:50;;;;;;;2.00;1.40;;;;;;;;;;4930363;29;20202;-70
2022/04/17 10:10:18;;;;;;;2.22;1.70;;;;;;;;;;4930324;29;20289;-69
2022/04/17 10:12:46;;;;;;;2.53;2.22;;;;;;;;;;4920604;29;20209;-69
2022/04/17 10:15:13;;;;;;;2.40;1.50;;;;;;;;;;4927489;29;20573;-70
2022/04/17 10:17:42;;;;;;;3.25;1.80;;;;;;;;;;4929016;29;20199;-70
2022/04/17 10:20:11;;;;;;;1.90;1.33;;;;;;;;;;4927212;29;20218;-70
2022/04/17 10:22:42;;;;;;;2.10;1.42;;;;;;;;;;4933012;29;20729;-70
2022/04/17 10:25:10;;;;;;;1.73;1.40;;;;;;;;;;4931824;29;20563;-70
2022/04/17 10:27:40;;;;;;;2.85;1.90;;;;;;;;;;4921344;29;21403;-69
2022/04/17 10:30:08;;;;;;;3.50;2.22;;;;;;;;;;4924297;29;20206;-69
2022/04/17 10:32:45;;;;;;;2.55;1.90;;;;;;;;;;4923804;29;20201;-69
2022/04/17 10:35:19;;;;;;;2.95;2.00;;;;;;;;;;4927481;29;20661;-69
2022/04/17 10:38:05;;;;;;;2.55;1.60;;;;;;;;;;4940382;29;20206;-69
2022/04/17 10:40:34;;;;;;;2.67;2.40;;;;;;;;;;4931041;29;20233;-69
2022/04/17 10:43:02;;;;;;;2.65;1.85;;;;;;;;;;4939305;29;20206;-69
2022/04/17 10:45:31;;;;;;;2.58;2.08;;;;;;;;;;4937203;29;20230;-69
2022/04/17 10:48:09;;;;;;;1.73;1.63;;;;;;;;;;4942962;29;20214;-69
2022/04/17 10:50:42;;;;;;;3.17;2.25;;;;;;;;;;4914560;29;20211;-69
2022/04/17 10:53:24;;;;;;;4.75;1.60;;;;;;;;;;4934332;29;20516;-69
2022/04/17 10:56:06;;;;;;;4.32;2.00;;;;;;;;;;4934188;29;20661;-69
2022/04/17 10:58:37;;;;;;;2.90;1.50;;;;;;;;;;4940062;29;20224;-68
2022/04/17 11:01:04;;;;;;;2.20;2.00;;;;;;;;;;4933236;29;20215;-70
2022/04/17 11:03:34;;;;;;;1.40;1.30;;;;;;;;;;4931655;29;20202;-70
2022/04/17 11:06:17;;;;;;;2.35;1.50;;;;;;;;;;4936889;29;20225;-69
2022/04/17 11:08:49;;;;;;;3.63;2.10;;;;;;;;;;4941408;29;20198;-69
2022/04/17 11:11:17;;;;;;;2.55;1.80;;;;;;;;;;4940908;29;20227;-69
2022/04/17 11:13:59;;;;;;;1.95;1.55;;;;;;;;;;4926932;29;20210;-69
2022/04/17 11:16:27;;;;;;;2.10;1.58;;;;;;;;;;4926117;29;20202;-70
2022/04/17 11:18:55;;;;;;;2.70;2.35;;;;;;;;;;4939121;29;20199;-69
2022/04/17 11:21:25;;;;;;;2.55;1.58;;;;;;;;;;4938806;29;20210;-69
2022/04/17 11:24:02;;;;;;;3.42;2.17;;;;;;;;;;4930934;29;20258;-69
2022/04/17 11:26:47;;;;;;;2.13;1.70;;;;;;;;;;4935598;29;20254;-68
2022/04/17 11:29:16;;;;;;;2.60;1.95;;;;;;;;;;4927812;29;20214;-68
2022/04/17 11:31:43;;;;;;;3.13;2.13;;;;;;;;;;4939815;29;20293;-68
2022/04/17 11:34:10;;;;;;;3.63;2.40;;;;;;;;;;4938012;29;20662;-69
2022/04/17 11:36:37;;;;;;;5.40;2.13;;;;;;;;;;4928361;29;20206;-69
2022/04/17 11:39:04;;;;;;;2.00;1.80;;;;;;;;;;4941350;28;20238;-70
2022/04/17 11:41:33;;;;;;;1.98;1.83;;;;;;;;;;4937571;29;20206;-69
2022/04/17 11:44:01;;;;;;;4.72;2.13;;;;;;;;;;4927520;29;20203;-69
2022/04/17 11:46:30;;;;;;;4.60;2.13;;;;;;;;;;4934315;29;20237;-70
2022/04/17 11:48:57;;;;;;;1.85;1.63;;;;;;;;;;4920198;29;20207;-69
2022/04/17 11:51:24;;;;;;;1.95;1.75;;;;;;;;;;4925851;29;20551;-69
2022/04/17 11:53:51;;;;;;;3.40;2.22;;;;;;;;;;4932662;29;20207;-69
2022/04/17 11:56:18;;;;;;;2.42;1.73;;;;;;;;;;4936512;29;20203;-68
2022/04/17 11:58:45;;;;;;;2.22;2.03;;;;;;;;;;4928895;29;20207;-68
2022/04/17 12:01:23;;;;;;;2.10;1.90;;;;;;;;;;4936061;29;20206;-68
2022/04/17 12:03:55;;;;;;;1.55;1.45;;;;;;;;;;4927402;29;20210;-69
2022/04/17 12:06:26;;;;;;;2.30;1.80;;;;;;;;;;4934317;29;20290;-69
2022/04/17 12:08:53;;;;;;;2.88;2.00;;;;;;;;;;4937621;29;20234;-69
2022/04/17 12:11:20;;;;;;;2.03;1.83;;;;;;;;;;4931015;29;20199;-69
2022/04/17 12:13:55;;;;;;;2.30;1.40;;;;;;;;;;4926455;29;20670;-69
2022/04/17 12:16:22;;;;;;;2.53;2.33;;;;;;;;;;4932276;29;20242;-69
2022/04/17 12:18:55;;;;;;;2.35;1.60;;;;;;;;;;4930133;29;20520;-72
2022/04/17 12:21:28;;;;;;;2.38;2.17;;;;;;;;;;4936826;29;20199;-71
2022/04/17 12:23:55;;;;;;;3.72;2.20;;;;;;;;;;4940476;29;20262;-71
2022/04/17 12:26:22;;;;;;;2.53;1.70;;;;;;;;;;4941467;29;20218;-71
2022/04/17 12:28:51;;;;;;;6.18;2.22;;;;;;;;;;4927475;29;20192;-71
2022/04/17 12:31:18;;;;;;;1.85;1.58;;;;;;;;;;4933124;29;20203;-73
2022/04/17 12:33:46;;;;;;;2.45;2.25;;;;;;;;;;4929515;29;20199;-72
2022/04/17 12:36:15;;;;;;;2.03;1.60;;;;;;;;;;4933915;29;20320;-72
2022/04/17 12:38:43;;;;;;;2.40;1.77;;;;;;;;;;4939426;29;20218;-72
2022/04/17 12:41:20;;;;;;;1.65;1.55;;;;;;;;;;4945171;29;20198;-72
2022/04/17 12:43:49;;;;;;;3.00;1.90;;;;;;;;;;4935818;29;20202;-71
2022/04/17 12:46:24;;;;;;;2.47;1.80;;;;;;;;;;4947133;29;20272;-72
2022/04/17 12:49:01;;;;;;;1.60;1.50;;;;;;;;;;4941755;29;20254;-73
2022/04/17 12:51:30;;;;;;;2.17;1.83;;;;;;;;;;4934396;29;20202;-71
2022/04/17 12:53:57;;;;;;;3.70;1.70;;;;;;;;;;4943780;29;20208;-72
2022/04/17 12:56:26;;;;;;;2.85;1.67;;;;;;;;;;4937811;29;20210;-72
2022/04/17 12:58:54;;;;;;;1.98;1.80;;;;;;;;;;4916042;29;20286;-72
2022/04/17 13:01:22;;;;;;;1.75;1.48;;;;;;;;;;4940546;29;20716;-73
2022/04/17 13:03:49;;;;;;;2.13;1.63;;;;;;;;;;4937766;29;20195;-72
2022/04/17 13:06:20;;;;;;;2.78;2.15;;;;;;;;;;4930139;29;20281;-72
2022/04/17 13:09:05;;;;;;;1.70;1.45;;;;;;;;;;4932987;29;20203;-72
2022/04/17 13:11:33;;;;;;;2.25;1.42;;;;;;;;;;4939294;29;20202;-73
2022/04/17 13:14:02;;;;;;;2.15;1.55;;;;;;;;;;4934332;28;20206;-72
2022/04/17 13:16:30;;;;;;;2.08;1.90;;;;;;;;;;4933022;29;20211;-73
2022/04/17 13:18:57;;;;;;;2.67;1.98;;;;;;;;;;4927631;29;20213;-74
2022/04/17 13:21:24;;;;;;;4.18;2.17;;;;;;;;;;4936983;29;20206;-72
2022/04/17 13:23:51;;;;;;;1.80;1.38;;;;;;;;;;4937474;29;20210;-72
2022/04/17 13:26:21;;;;;;;2.25;1.70;;;;;;;;;;4944991;29;20233;-74
2022/04/17 13:28:48;;;;;;;1.70;1.60;;;;;;;;;;4937316;29;20205;-70
2022/04/17 13:31:15;;;;;;;2.17;1.58;;;;;;;;;;4934724;29;20656;-70
2022/04/17 13:33:42;;;;;;;1.58;1.48;;;;;;;;;;4948047;29;20629;-71
2022/04/17 13:36:09;;;;;;;1.45;1.35;;;;;;;;;;4926125;29;20221;-71
2022/04/17 13:38:37;;;;;;;2.08;1.45;;;;;;;;;;4940276;29;20224;-70
2022/04/17 13:41:05;;;;;;;1.40;1.30;;;;;;;;;;4942123;29;20190;-70
2022/04/17 13:43:34;;;;;;;3.30;2.00;;;;;;;;;;4932414;29;20203;-69
2022/04/17 13:46:01;;;;;;;1.40;1.20;;;;;;;;;;4943582;29;20234;-70
2022/04/17 13:48:28;;;;;;;1.70;1.60;;;;;;;;;;4934374;29;20201;-72
2022/04/17 13:50:55;;;;;;;1.58;1.48;;;;;;;;;;4939209;29;20222;-70
2022/04/17 13:53:22;;;;;;;1.98;1.10;;;;;;;;;;4941125;29;20222;-71
2022/04/17 13:55:49;;;;;;;2.47;1.63;;;;;;;;;;4932619;29;20199;-70
2022/04/17 13:58:16;;;;;;;1.38;1.20;;;;;;;;;;4932913;29;20643;-70
2022/04/17 14:00:45;;;;;;;2.67;1.70;;;;;;;;;;4945215;29;20287;-69
2022/04/17 14:03:12;;;;;;;2.35;1.60;;;;;;;;;;4934824;29;20551;-71
2022/04/17 14:05:39;;;;;;;4.10;1.50;;;;;;;;;;4931749;29;20588;-69
2022/04/17 14:08:06;;;;;;;2.28;1.45;;;;;;;;;;4941417;29;20213;-70
2022/04/17 14:10:33;;;;;;;2.03;1.50;;;;;;;;;;4943381;29;20190;-69
2022/04/17 14:13:00;;;;;;;2.28;1.98;;;;;;;;;;4942144;29;20562;-70
2022/04/17 14:15:27;;;;;;;2.30;1.70;;;;;;;;;;4941722;29;20195;-69
2022/04/17 14:17:56;;;;;;;1.85;1.45;;;;;;;;;;4929505;29;20636;-69
2022/04/17 14:20:23;;;;;;;2.00;1.80;;;;;;;;;;4916716;29;20223;-69
2022/04/17 14:22:50;;;;;;;2.00;1.25;;;;;;;;;;4941547;29;20210;-69
2022/04/17 14:25:18;;;;;;;2.25;1.95;;;;;;;;;;4941107;28;20202;-69
2022/04/17 14:27:45;;;;;;;2.78;1.50;;;;;;;;;;4934078;29;20286;-70
2022/04/17 14:30:12;;;;;;;2.42;1.55;;;;;;;;;;4919938;29;20210;-70
2022/04/17 14:32:39;;;;;;;1.98;1.23;;;;;;;;;;4946041;29;20198;-70
2022/04/17 14:35:09;;;;;;;2.35;1.50;;;;;;;;;;4925106;29;20199;-71
2022/04/17 14:37:36;;;;;;;2.30;1.40;;;;;;;;;;4938082;29;20566;-68
2022/04/17 14:40:03;;;;;;;2.80;1.45;;;;;;;;;;4936691;29;20230;-69
2022/04/17 14:42:30;;;;;;;1.92;1.40;;;;;;;;;;4934215;29;20199;-69
2022/04/17 14:44:57;;;;;;;2.28;1.58;;;;;;;;;;4930999;29;20208;-69
2022/04/17 14:47:24;;;;;;;1.55;1.23;;;;;;;;;;4933750;29;20388;-69
2022/04/17 14:49:51;;;;;;;1.30;1.20;;;;;;;;;;4933858;29;20206;-69
2022/04/17 14:52:20;;;;;;;1.80;1.35;;;;;;;;;;4942320;29;20447;-69
2022/04/17 14:54:48;;;;;;;2.08;1.50;;;;;;;;;;4939578;29;20278;-69
2022/04/17 14:57:15;;;;;;;2.80;1.60;;;;;;;;;;4940307;29;20199;-69
2022/04/17 14:59:42;;;;;;;1.98;1.48;;;;;;;;;;4942071;29;20198;-70